OIMC  Sarakhs  Airport

Sarakhs, Iran

Add Bookmark
ICAO OIMC
IATA CKT
Type Airport
Status Operational
Latitude
36° 30' 4" N
36.501202
Longitude
61° 3' 53" E
61.064899
Local (DST + 5) UTC (GMT + 4)
Jul 6, 2015 07:17 Jul 6, 2015 02:47
Sunrise-Sunset Local UTC
Begin Civil Twilight 04:41 00:11
Sunrise 05:12 00:42
Sunset 07:48 15:18
End Civil Twilight 08:19 15:49
VFR
VFR
MVFR
MVFR
IFR
IFR
LIFR
LIFR
Unknown
Unavailable

Current Weather

METAR Observed VFR
OIMC 060200Z 00000KT CAVOK 24/05 Q1012 Mon, Jul 6, 2015 @ 02:00 UTC
(47 Minutes ago)
Visual Flight Rules
Wind Visibility Conditions
Calm 10 km or more
  • No significant weather
Temperatures Readings Precipitation
Current Temp
24°C
75°F
Dewpoint
5°C
41°F
Humidity 29%
Altimeter 29.88" Hg
Sea Level Pressure 1,012 mb
Field Elevation
288 m
945 ft
None Recorded
-
-

CheckWX.com is intended as a tool to help pilots better visualize weather data. It is not intended as a substitute for an official weather briefing obtained from a Flight Service Station. CheckWX.com does not meet the FAA requirements for an official pre-flight weather briefing. Therefore, it's important that pilots still call and obtain an official FSS pre-flight weather briefing.

© 2007-2015 CheckWX.com
02:47:53 UTC